x

8461490 - New London, Ct (nlnc3) Weather Station

6:30 - Mon 22nd Dec 2014 All times are EST. -5 hours from GMT.

  • Wind
    6mph, 8mph gusts
  • Sea Temp 46°f
  • Aire Temp 43°f
  • Sea Pressure 1024.1mb
  • 8461490 - New London, Ct
  • 8461490 - New London, Ct

More Historic Weather Station data

Upgrade to MSW Pro to gain access to the past 30 days of data for over 8000 Wavebouys and Weather Stations around the globe.

Join Pro

Comparision Forecast

View Surf forecast
   
lun 12/22 6:30 6 8 mph 1024.1mb 46f 43f
6:24 3 6 mph 1024.2mb 46f 43f
6:18 5 8 mph 1024.3mb 46f 43f
6:12 5 8 mph 1024.4mb 46f 43f
6:06 3 7 mph 1024.4mb 46f 43f
5:54 3 9 mph 1024.6mb 46f 43f
5:48 3 10 mph 1024.6mb 46f 44f
5:42 3 7 mph 1024.8mb 46f 44f
5:36 2 6 mph 1024.8mb 46f 44f
5:30 3 7 mph 1024.6mb 46f 44f
5:24 6 8 mph 1024.7mb 46f 44f
5:18 3 9 mph 1024.6mb 46f 44f
5:12 6 8 mph 1024.5mb 46f 44f
5:00 5 8 mph 1024.3mb 45f 44f
4:54 7 13 mph 1024.4mb 45f 44f
4:48 7 9 mph 1024.5mb 45f 44f
4:42 9 13 mph 1024.3mb 44f 44f
4:36 8 10 mph 1024.4mb 44f 44f
4:30 5 9 mph 1024.7mb 44f 44f
4:24 5 8 mph 1024.7mb 44f 44f
4:18 3 8 mph 1024.6mb 44f 44f
4:12 6 10 mph 1024.6mb 44f 44f
4:06 5 9 mph 1024.6mb 44f 44f
4:00 5 8 mph 1024.5mb 44f 44f
3:54 6 9 mph 1024.4mb 44f 45f
3:48 3 13 mph 1024.2mb 44f 45f
3:42 9 13 mph 1024.1mb 44f 45f
3:36 9 15 mph 1024.1mb 44f 45f
3:30 6 9 mph 1024.2mb 44f 45f
3:24 9 11 mph 1024.3mb 43f 45f
3:18 10 13 mph 1024.3mb 44f 45f
3:12 8 13 mph 1024.3mb 44f 45f
3:06 8 11 mph 1024.3mb 44f 45f
3:00 8 13 mph 1024.1mb 44f 45f
2:54 9 11 mph 1024mb 44f 45f
2:48 9 13 mph 1024.1mb 44f 45f
2:42 6 11 mph 1024.3mb 44f 45f
2:36 7 13 mph 1024.3mb 44f 45f
2:30 8 13 mph 1024.2mb 44f 45f
2:24 9 14 mph 1024.3mb 44f 45f
2:12 10 15 mph 1024.1mb 44f 46f
2:06 9 15 mph 1023.9mb 45f 46f
2:00 8 13 mph 1023.9mb 45f 46f
1:54 9 14 mph 1023.9mb 45f 46f
1:48 11 14 mph 1024.1mb 45f 46f
1:42 8 18 mph 1024.2mb 45f 46f
1:36 7 11 mph 1024.2mb 45f 46f
1:30 9 14 mph 1024.3mb 45f 45f
1:24 13 17 mph 1024.3mb 45f 45f
1:18 6 13 mph 1024.2mb 45f 46f
1:12 6 14 mph 1024.2mb 45f 46f
1:06 11 16 mph 1024.3mb 45f 45f
1:00 10 17 mph 1024.2mb 45f 45f
12:54 13 15 mph 1024.3mb 45f 45f
12:48 9 13 mph 1024.7mb 45f 45f
12:42 6 14 mph 1025.3mb 45f 45f
12:36 9 16 mph 1025.5mb 46f 45f
12:30 9 14 mph 1025.7mb 46f 45f
12:24 7 13 mph 1025.8mb 45f 45f
12:18 9 14 mph 1025.8mb 45f 45f
12:12 10 16 mph 1025.7mb 45f 45f
12:06 8 11 mph 1025.6mb 45f 44f
12:00 9 13 mph 1025.8mb 45f 44f
11:54 10 14 mph 1025.9mb 46f 44f
11:48 6 9 mph 1025.9mb 46f 44f
11:42 7 10 mph 1025.8mb 46f 44f
11:36 7 11 mph 1025.9mb 46f 44f
11:30 7 11 mph 1026mb 46f 44f
11:24 7 9 mph 1026.1mb 46f 44f
11:18 8 13 mph 1026.2mb 46f 44f
11:12 3 6 mph 1026.3mb 46f 44f
11:06 2 7 mph 1026.2mb 46f 44f
11:00 3 8 mph 1026.3mb 46f 44f
10:54 8 13 mph 1026.2mb 46f 43f
10:48 7 11 mph 1026.2mb 46f 43f
10:42 3 7 mph 1026.4mb 46f 44f
10:36 7 10 mph 1026.3mb 46f 44f
10:30 5 7 mph 1026.5mb 46f 44f
10:24 3 7 mph 1026.6mb 46f 43f
10:18 5 7 mph 1026.8mb 46f 43f
10:12 2 8 mph 1026.9mb 46f 42f
10:06 3 7 mph 1026.9mb 46f 40f
10:00 7 10 mph 1026.8mb 46f 40f
9:54 7 10 mph 1026.7mb 46f 39f
9:48 6 10 mph 1026.8mb 46f 39f
9:42 8 11 mph 1026.8mb 46f 38f
9:36 7 10 mph 1026.9mb 46f 38f
9:30 6 8 mph 1027mb 46f 38f
9:24 7 10 mph 1026.9mb 46f 38f
9:18 5 8 mph 1027mb 46f 38f
9:12 3 6 mph 1027.1mb 46f 38f
9:06 5 8 mph 1027mb 46f 38f
9:00 7 8 mph 1026.9mb 46f 38f
8:54 5 7 mph 1026.9mb 46f 37f
8:48 3 8 mph 1026.8mb 46f 37f
8:42 6 8 mph 1026.7mb 46f 37f
8:36 6 9 mph 1026.7mb 46f 37f
8:30 6 10 mph 1026.7mb 46f 37f
8:24 7 9 mph 1026.8mb 46f 37f
8:18 7 9 mph 1026.7mb 46f 37f
8:12 7 10 mph 1026.7mb 46f 36f
8:06 7 10 mph 1026.7mb 46f 36f
8:00 7 8 mph 1026.7mb 46f 36f
7:54 5 8 mph 1026.6mb 46f 36f
7:48 3 8 mph 1026.6mb 46f 36f
7:42 6 9 mph 1026.5mb 46f 36f
7:36 7 9 mph 1026.6mb 46f 36f
7:30 5 8 mph 1026.5mb 46f 36f
7:24 5 6 mph 1026.3mb 46f 36f
7:18 6 8 mph 1026.3mb 46f 35f
7:12 7 9 mph 1026.4mb 46f 36f
7:06 7 9 mph 1026.4mb 46f 36f
7:00 7 9 mph 1026.4mb 46f 36f
6:54 6 9 mph 1026.5mb 46f 35f
6:48 6 9 mph 1026.5mb 46f 35f
6:42 7 10 mph 1026.5mb 46f 35f
6:36 6 10 mph 1026.5mb 46f 35f
6:30 7 9 mph 1026.5mb 46f 35f
6:24 7 9 mph 1026.5mb 46f 35f
6:18 7 9 mph 1026.5mb 46f 35f
6:12 6 9 mph 1026.5mb 46f 35f
6:06 8 11 mph 1026.4mb 46f 35f
6:00 7 10 mph 1026.4mb 46f 35f
5:54 8 10 mph 1026.4mb 46f 35f
5:48 8 11 mph 1026.4mb 46f 35f
5:42 7 9 mph 1026.3mb 46f 35f
5:36 6 10 mph 1026.4mb 46f 35f
5:30 7 9 mph 1026.4mb 46f 35f
5:24 6 10 mph 1026.4mb 46f 35f
5:18 7 10 mph 1026.3mb 46f 35f
5:12 7 9 mph 1026.2mb 46f 35f
5:06 5 10 mph 1026.1mb 46f 35f
5:00 6 10 mph 1026.1mb 46f 35f
4:54 5 8 mph 1026.1mb 46f 35f
4:48 3 7 mph 1026mb 46f 35f
4:42 5 7 mph 1026mb 46f 35f
4:36 6 8 mph 1026mb 46f 35f
4:30 6 10 mph 1026.1mb 46f 35f
4:24 6 8 mph 1026.1mb 46f 35f
4:18 6 8 mph 1026.2mb 46f 35f
4:12 6 8 mph 1026.2mb 45f 35f
4:06 6 7 mph 1026.2mb 44f 35f
4:00 6 8 mph 1026.1mb 44f 35f
3:54 6 7 mph 1026.2mb 44f 35f
3:48 6 8 mph 1026.1mb 43f 35f
3:42 7 9 mph 1026.1mb 43f 35f
3:36 5 9 mph 1026.1mb 43f 35f
3:30 6 9 mph 1026.2mb 43f 35f
3:24 6 9 mph 1026.1mb 43f 35f
3:18 6 8 mph 1026.1mb 43f 35f
3:12 6 9 mph 1026.1mb 43f 35f
3:06 8 10 mph 1026.1mb 43f 35f
3:00 7 9 mph 1026.2mb 43f 35f
2:54 6 9 mph 1026.1mb 43f 35f
2:48 7 9 mph 1026.1mb 43f 35f
2:42 6 10 mph 1026.2mb 43f 35f
2:36 6 9 mph 1026.1mb 43f 35f
2:30 7 10 mph 1026.1mb 44f 35f
2:24 6 9 mph 1026.2mb 44f 35f
2:18 6 8 mph 1026.2mb 44f 35f
2:12 7 10 mph 1026.2mb 44f 35f
2:06 7 9 mph 1026.3mb 44f 35f
2:00 8 10 mph 1026.4mb 44f 35f
1:54 7 9 mph 1026.3mb 44f 35f
1:48 6 8 mph 1026.3mb 44f 35f
1:42 6 8 mph 1026.3mb 44f 35f
1:36 6 8 mph 1026.3mb 44f 35f
1:30 7 8 mph 1026.3mb 44f 35f
1:24 6 10 mph 1026.1mb 44f 34f
1:18 3 8 mph 1026.1mb 45f 35f
1:12 3 7 mph 1026.2mb 45f 35f
1:06 6 8 mph 1026.2mb 45f 35f
1:00 7 10 mph 1026.2mb 45f 34f
12:54 6 9 mph 1026.2mb 45f 35f
12:48 6 9 mph 1026.2mb 45f 35f
12:42 6 9 mph 1026.2mb 45f 34f
12:36 5 8 mph 1026.2mb 45f 34f
12:30 6 9 mph 1026.2mb 45f 34f
12:24 7 10 mph 1026.1mb 45f 34f
12:18 7 8 mph 1026.1mb 45f 34f
12:12 7 9 mph 1026.1mb 45f 34f
12:06 6 10 mph 1026.2mb 45f 34f
12:00 6 9 mph 1026.2mb 45f 34f
dom 12/21 11:54 6 8 mph 1026.2mb 45f 34f
11:48 6 10 mph 1026.2mb 45f 34f
11:42 5 9 mph 1026.2mb 45f 34f
11:36 6 9 mph 1026.2mb 45f 34f
11:30 7 9 mph 1026.2mb 45f 34f
11:24 7 10 mph 1026.2mb 45f 34f
11:18 7 9 mph 1026.2mb 45f 34f
11:12 7 10 mph 1026.2mb 45f 34f
11:06 8 11 mph 1026.2mb 45f 34f
11:00 7 9 mph 1026.2mb 46f 34f
10:54 8 9 mph 1026.3mb 46f 34f
10:48 7 10 mph 1026.4mb 46f 34f
10:42 8 10 mph 1026.3mb 46f 34f
10:36 7 8 mph 1026.4mb 46f 34f
10:30 6 9 mph 1026.4mb 46f 34f
10:24 3 8 mph 1026.4mb 46f 34f
10:18 3 8 mph 1026.4mb 46f 35f
10:12 5 8 mph 1026.4mb 46f 34f
10:06 3 8 mph 1026.4mb 46f 35f
10:00 5 7 mph 1026.4mb 46f 34f
9:54 3 9 mph 1026.4mb 46f 34f
9:48 3 8 mph 1026.4mb 46f 35f
9:42 6 8 mph 1026.4mb 46f 34f
9:36 3 8 mph 1026.4mb 46f 35f
9:30 5 8 mph 1026.5mb 46f 34f
9:24 3 9 mph 1026.5mb 46f 34f
9:18 2 8 mph 1026.4mb 46f 35f
9:12 6 9 mph 1026.3mb 46f 34f
9:06 2 9 mph 1026.3mb 46f 35f
9:00 6 10 mph 1026.3mb 46f 34f
8:54 6 9 mph 1026.3mb 46f 34f
8:48 6 9 mph 1026.2mb 46f 34f
8:42 5 8 mph 1026.1mb 46f 34f
8:36 6 9 mph 1026.2mb 46f 34f
8:30 5 8 mph 1026.2mb 46f 34f
8:24 6 9 mph 1026.2mb 46f 34f
8:18 8 10 mph 1026.2mb 46f 34f
8:12 7 9 mph 1026.1mb 46f 35f
7:54 5 8 mph 1026mb 45f 35f
7:48 7 8 mph 1026mb 45f 35f
7:36 6 8 mph 1026mb 45f 35f
7:30 6 8 mph 1026mb 45f 35f
7:24 6 8 mph 1026mb 45f 35f
7:18 3 8 mph 1026mb 45f 35f
7:12 6 9 mph 1026mb 46f 35f
7:06 3 7 mph 1025.9mb 46f 35f
7:00 6 8 mph 1025.9mb 46f 35f
6:54 2 7 mph 1025.9mb 46f 35f
6:48 2 6 mph 1025.8mb 46f 35f
6:42 5 7 mph 1025.8mb 46f 35f
6:36 2 6 mph 1025.7mb 46f 35f
6:30 5 7 mph 1025.6mb 46f 35f
6:24 3 7 mph 1025.5mb 46f 35f
6:18 3 7 mph 1025.5mb 46f 35f
6:12 3 7 mph 1025.5mb 46f 35f
6:06 3 7 mph 1025.4mb 46f 35f
6:00 5 8 mph 1025.4mb 46f 35f
5:54 3 7 mph 1025.3mb 46f 36f
5:48 2 7 mph 1025.2mb 46f 36f
5:42 3 8 mph 1025.2mb 46f 36f
5:36 6 8 mph 1025.2mb 46f 35f
5:30 6 8 mph 1025.1mb 46f 36f
5:24 3 7 mph 1025.1mb 46f 36f
5:18 3 6 mph 1025.1mb 46f 36f
5:00 3 7 mph 1025mb 46f 36f
4:54 5 7 mph 1024.9mb 46f 36f
4:48  -  5 mph 1024.8mb 46f 36f
4:42 3 5 mph 1024.6mb 46f 36f
4:36 3 7 mph 1024.6mb 46f 36f
4:30 3 6 mph 1024.7mb 45f 36f
4:24 1 3 mph 1024.7mb 44f 36f
4:18 2 6 mph 1024.6mb 44f 36f
4:12 2 6 mph 1024.5mb 43f 36f
4:06 2 5 mph 1024.4mb 43f 36f
4:00 3 6 mph 1024.3mb 43f 36f
3:54 2 6 mph 1024.2mb 43f 37f
3:48 2 7 mph 1024.1mb 43f 37f
3:42 3 7 mph 1024.2mb 43f 36f
3:36 3 7 mph 1024.2mb 43f 36f
3:30 3 9 mph 1024.2mb 43f 37f
3:24 6 9 mph 1024.2mb 43f 36f
3:18 5 10 mph 1024.1mb 43f 36f
3:12 9 11 mph 1024.2mb 43f 36f
3:06 3 6 mph 1024.1mb 43f 37f
3:00 3 8 mph 1024mb 43f 37f
2:54 6 11 mph 1024mb 43f 37f
2:48 7 13 mph 1024.1mb 43f 37f
2:42 6 10 mph 1024mb 43f 37f
2:30 3 9 mph 1024.1mb 43f 37f
2:24 2 9 mph 1023.9mb 43f 37f
2:18 3 8 mph 1023.8mb 44f 37f
2:12 6 9 mph 1023.9mb 44f 37f
2:06 6 10 mph 1023.9mb 44f 37f
2:00 6 9 mph 1023.9mb 44f 37f
1:54 6 9 mph 1023.9mb 44f 37f
1:48 2 8 mph 1023.9mb 44f 37f
1:42 7 11 mph 1023.9mb 44f 37f
1:36 7 11 mph 1023.8mb 44f 36f
1:30 8 13 mph 1023.9mb 44f 36f
1:24 8 10 mph 1023.8mb 44f 36f
1:18 7 13 mph 1023.7mb 44f 36f
1:12 9 14 mph 1023.7mb 44f 36f
1:06 8 14 mph 1023.7mb 45f 36f
1:00 9 15 mph 1023.7mb 45f 36f
12:54 7 14 mph 1023.6mb 45f 37f
12:48 10 14 mph 1023.5mb 44f 36f
12:42 9 14 mph 1023.6mb 45f 36f
12:36 9 15 mph 1023.6mb 45f 36f
12:30 7 14 mph 1023.6mb 45f 37f
12:24 7 13 mph 1023.6mb 45f 36f
12:12 8 14 mph 1023.7mb 45f 36f
12:06 9 14 mph 1023.7mb 45f 36f
12:00 8 13 mph 1023.8mb 46f 36f
11:54 6 14 mph 1023.8mb 46f 36f
11:48 8 14 mph 1023.8mb 46f 36f
11:42 8 11 mph 1023.8mb 46f 36f
11:36 7 13 mph 1023.8mb 46f 36f
11:30 8 10 mph 1023.8mb 46f 36f
11:24 6 10 mph 1023.9mb 46f 36f
11:18 8 11 mph 1024mb 46f 35f
11:12 7 9 mph 1024mb 46f 35f
11:06 9 13 mph 1024.1mb 46f 35f
11:00 9 14 mph 1024.3mb 46f 35f
10:54 7 11 mph 1024.4mb 46f 35f
10:48 8 11 mph 1024.4mb 46f 35f
10:42 8 11 mph 1024.5mb 46f 35f
10:36 8 11 mph 1024.6mb 46f 35f
10:30 9 13 mph 1024.5mb 46f 35f
10:24 9 13 mph 1024.6mb 46f 35f
10:18 9 13 mph 1024.6mb 46f 35f
10:12 8 10 mph 1024.7mb 46f 35f
10:06 6 10 mph 1024.7mb 46f 34f
10:00 8 10 mph 1024.8mb 46f 34f
9:54 8 11 mph 1024.9mb 46f 34f
9:48 6 10 mph 1025mb 46f 34f
9:42 8 13 mph 1024.9mb 46f 34f
9:36 7 11 mph 1024.9mb 46f 34f
9:30 9 10 mph 1024.9mb 46f 34f
9:24 7 10 mph 1024.9mb 46f 34f
9:18 5 8 mph 1024.8mb 46f 34f
9:12 7 10 mph 1024.7mb 46f 34f
9:06 7 11 mph 1024.8mb 46f 33f
9:00 8 11 mph 1024.8mb 46f 33f
8:54 7 13 mph 1024.7mb 46f 34f
8:48 9 14 mph 1024.6mb 46f 33f
8:42 9 13 mph 1024.6mb 46f 33f
8:36 8 11 mph 1024.6mb 46f 33f
8:30 8 11 mph 1024.5mb 46f 33f
8:24 9 13 mph 1024.4mb 46f 33f
8:18 8 11 mph 1024.4mb 46f 33f
8:12 8 11 mph 1024.3mb 46f 33f
8:06 8 13 mph 1024.3mb 46f 33f
8:00 7 13 mph 1024.3mb 46f 33f
7:54 6 10 mph 1024.2mb 46f 33f
7:48 7 9 mph 1024.2mb 46f 33f
7:36 7 10 mph 1024.2mb 46f 33f
7:30 7 9 mph 1024.2mb 46f 33f
7:24 6 9 mph 1024.2mb 46f 33f
7:18 8 11 mph 1024.2mb 46f 33f
7:12 7 11 mph 1024.3mb 46f 33f
7:06 7 10 mph 1024.2mb 46f 33f
7:00 8 10 mph 1024.2mb 46f 33f
6:54 8 11 mph 1024.2mb 46f 33f
6:48 8 10 mph 1024.1mb 46f 33f
6:42 8 10 mph 1024.1mb 46f 33f
6:30 8 11 mph 1024.1mb 46f 33f
6:24 7 10 mph 1024mb 46f 33f
6:18 6 10 mph 1023.8mb 46f 33f
6:12 5 10 mph 1023.8mb 46f 33f
6:06 5 9 mph 1023.7mb 46f 33f
6:00 7 9 mph 1023.8mb 46f 33f
5:54 5 7 mph 1023.7mb 46f 33f
5:48 3 7 mph 1023.6mb 46f 33f
5:42 3 8 mph 1023.6mb 46f 33f
5:36 3 10 mph 1023.7mb 46f 33f
5:30 6 9 mph 1023.7mb 46f 33f
5:24 6 9 mph 1023.7mb 46f 33f
5:18 8 10 mph 1023.7mb 46f 33f
5:12 7 9 mph 1023.6mb 46f 33f
5:06 5 9 mph 1023.6mb 46f 33f
5:00 7 9 mph 1023.5mb 46f 33f
4:54 8 13 mph 1023.5mb 46f 33f
4:48 7 10 mph 1023.5mb 46f 33f
4:42 7 10 mph 1023.5mb 46f 33f
4:36 6 9 mph 1023.4mb 46f 34f
4:30 6 10 mph 1023.3mb 46f 34f
4:24 5 9 mph 1023.3mb 46f 34f
4:18 3 8 mph 1023.3mb 46f 34f
4:12 6 9 mph 1023.3mb 46f 34f
4:06 3 6 mph 1023.3mb 46f 34f
4:00 5 8 mph 1023.3mb 46f 34f
3:54 6 8 mph 1023.4mb 46f 34f
3:48 3 6 mph 1023.5mb 46f 34f
3:42 2 8 mph 1023.6mb 46f 34f
3:36 2 7 mph 1023.6mb 46f 34f
3:30 3 8 mph 1023.6mb 46f 34f
3:24 3 7 mph 1023.6mb 46f 34f
3:18 5 7 mph 1023.6mb 46f 34f
3:12 5 8 mph 1023.6mb 45f 34f
3:06 2 8 mph 1023.7mb 44f 34f
3:00 6 9 mph 1023.8mb 44f 34f
2:54 6 11 mph 1023.9mb 44f 34f
2:48 5 8 mph 1023.9mb 44f 34f
2:42 6 9 mph 1024mb 44f 34f
2:36 6 8 mph 1024.1mb 44f 34f
2:30 3 7 mph 1024.1mb 44f 34f
2:24 5 6 mph 1024.1mb 44f 33f
2:18 5 8 mph 1024mb 44f 33f
2:12 3 6 mph 1024mb 44f 34f
2:06 3 6 mph 1024mb 44f 33f
2:00 3 7 mph 1024mb 45f 33f
1:54 5 7 mph 1024mb 45f 33f
1:48 5 6 mph 1023.9mb 45f 33f
1:42 2 5 mph 1023.9mb - 34f
1:36 2 5 mph 1023.9mb - 34f
1:30 2 8 mph 1023.8mb - 34f
1:24 3 8 mph 1023.8mb - 33f
1:18 3 6 mph 1023.8mb 45f 34f
1:12 2 7 mph 1023.8mb 45f 34f
1:06 3 7 mph 1023.7mb 45f 34f
1:00 6 7 mph 1023.8mb 45f 33f
12:54 2 7 mph 1023.8mb 45f 34f
12:48 7 9 mph 1023.8mb 45f 33f
12:42 6 8 mph 1023.8mb 46f 33f
12:36 7 9 mph 1023.8mb 46f 33f
12:30 6 9 mph 1023.8mb 46f 33f
12:24 7 9 mph 1023.8mb 46f 34f
12:18 7 8 mph 1023.7mb 46f 33f
12:12 5 7 mph 1023.6mb 46f 34f
12:06 6 7 mph 1023.6mb 46f 33f
12:00 3 7 mph 1023.7mb 46f 34f
sáb 12/20 11:54 5 8 mph 1023.8mb 46f 33f
11:48 6 9 mph 1023.9mb 46f 33f
11:42 6 7 mph 1023.9mb 46f 33f
11:36 6 8 mph 1024mb 46f 33f
11:30 2 7 mph 1024mb 46f 34f
11:24 7 10 mph 1024.1mb 46f 34f
11:18 5 8 mph 1024.1mb 46f 34f
11:12 7 9 mph 1024.3mb 46f 34f
11:06 7 10 mph 1024.4mb 46f 34f
11:00 7 9 mph 1024.4mb 46f 34f
10:54 7 8 mph 1024.4mb 46f 34f
10:48 6 7 mph 1024.5mb 46f 34f
10:42 5 7 mph 1024.4mb 46f 34f
10:36 5 9 mph 1024.4mb 46f 34f
10:30 6 10 mph 1024.4mb 46f 34f
10:24 6 8 mph 1024.4mb 46f 34f
10:18 3 6 mph 1024.4mb 46f 34f
10:12 1 3 mph 1024.4mb 46f 34f
10:06 3 6 mph 1024.5mb 46f 34f
10:00 2 8 mph 1024.4mb 46f 34f
9:54 6 7 mph 1024.4mb 46f 34f
9:48 5 7 mph 1024.3mb 46f 34f
9:42 5 7 mph 1024.3mb 46f 34f
9:36 3 7 mph 1024.2mb 46f 34f
9:30 3 6 mph 1024.2mb 46f 34f
9:24 3 5 mph 1024.1mb 46f 34f
9:18 2 6 mph 1023.9mb 46f 34f
9:12 3 6 mph 1023.8mb 46f 34f
9:06 2 6 mph 1023.9mb 46f 34f
9:00 2 6 mph 1024mb 46f 34f
8:54 3 7 mph 1024.1mb 46f 34f
8:48 2 6 mph 1024.1mb 46f 34f
8:42 2 5 mph 1024.1mb 46f 34f
8:36 1 5 mph 1024.2mb 46f 34f
8:30 2 6 mph 1024.2mb 46f 34f
8:24 3 7 mph 1024.2mb 46f 34f
8:18 3 9 mph 1024.2mb 46f 34f
8:12 6 7 mph 1024.2mb 46f 34f
8:06 5 7 mph 1024.2mb 46f 34f
8:00 5 6 mph 1024.2mb 46f 34f
7:54 5 7 mph 1024.2mb 46f 34f
7:48 2 7 mph 1024.2mb 46f 34f
7:42 5 7 mph 1024.2mb 46f 35f
7:36 5 7 mph 1024.2mb 46f 35f
7:30 2 6 mph 1024.2mb 46f 35f
7:24 3 6 mph 1024.2mb 46f 35f
7:18 3 6 mph 1024.3mb 46f 35f
7:12 1 5 mph 1024.4mb 46f 35f
7:06 3 6 mph 1024.3mb 46f 35f
7:00 2 8 mph 1024.3mb 46f 35f
6:54 3 7 mph 1024.2mb 46f 35f
6:48 2 7 mph 1024.2mb 46f 35f
6:42 3 7 mph 1024.2mb 46f 35f
6:36 2 8 mph 1024.1mb 46f 35f
6:30 3 9 mph 1024.1mb 46f 35f
6:24 6 9 mph 1024.1mb 46f 35f
6:18 6 10 mph 1024mb 46f 35f
6:12 6 9 mph 1023.9mb 46f 35f
6:06 6 8 mph 1023.9mb 46f 35f
5:54 5 6 mph 1023.9mb 47f 35f
5:48 5 8 mph 1023.9mb 47f 35f
5:42 2 5 mph 1024mb 47f 35f
5:36 3 5 mph 1024mb 47f 35f
5:30 2 5 mph 1024mb 46f 35f
5:24  -  3 mph 1023.9mb 46f 35f
5:18 1 7 mph 1023.8mb 46f 35f
5:12 5 7 mph 1023.7mb 46f 34f
5:06 3 5 mph 1023.7mb 46f 34f
5:00 2 5 mph 1023.8mb 46f 34f
4:54 2 6 mph 1023.8mb 46f 34f
4:48 3 6 mph 1023.7mb 46f 34f
4:42 5 6 mph 1023.6mb 46f 34f
4:36 5 6 mph 1023.5mb 46f 34f
4:30 3
mph
1023.5mb 46f 34f
4:24 2 5 mph 1023.4mb 45f 34f
4:18 2 5 mph 1023.4mb 45f 34f
4:12 3 5 mph 1023.4mb 45f 34f
4:06 2 6 mph 1023.3mb 45f 34f
4:00 3 6 mph 1023.3mb 45f 34f
3:54 3 6 mph 1023.3mb 45f 34f
3:48 2 7 mph 1023.3mb 44f 34f
3:42 3 6 mph 1023.3mb 44f 34f
3:36 5 8 mph 1023.3mb 44f 34f
3:30 5 7 mph 1023.3mb 44f 34f
3:24 6 8 mph 1023.4mb 44f 34f
3:18 5 8 mph 1023.4mb 44f 33f
3:12 5 7 mph 1023.4mb 44f 33f
3:06 5 7 mph 1023.5mb 44f 33f
3:00 5 6 mph 1023.4mb 44f 33f
2:54 3 5 mph 1023.4mb 44f 33f
2:48 2 3 mph 1023.4mb 44f 33f
2:42 2 5 mph 1023.3mb 44f 33f
2:36 3 6 mph 1023.2mb 44f 33f
2:24 2 5 mph 1023.3mb 44f 33f
2:18 2 6 mph 1023.3mb 44f 33f
2:12 2 6 mph 1023.4mb 44f 33f
2:06 5 7 mph 1023.5mb 44f 33f
2:00 2 6 mph 1023.6mb 44f 33f
1:54 3 6 mph 1023.7mb 44f 33f
1:48 3 6 mph 1023.6mb 44f 33f
1:42 2 6 mph 1023.6mb 44f 33f
1:36 2 5 mph 1023.6mb 44f 33f
1:30 3 6 mph 1023.6mb 44f 33f
1:24 3 6 mph 1023.6mb 44f 33f
1:18 3 6 mph 1023.6mb 44f 33f
1:12 3 6 mph 1023.7mb 45f 33f
1:06 2 6 mph 1023.7mb 45f 33f
1:00 2 5 mph 1023.6mb 45f 33f
12:54 2 3 mph 1023.6mb 45f 33f
12:48  -  2 mph 1023.6mb 45f 33f
12:42 2 5 mph 1023.6mb 45f 33f
12:36 2 3 mph 1023.7mb 45f 33f
12:30  -  3 mph 1023.7mb 45f 33f
12:24 2 6 mph 1023.7mb 45f 33f
12:18 3 5 mph 1023.8mb 46f 33f
12:06  -  2 mph 1023.8mb 46f 33f
11:54 2 3 mph 1023.8mb 46f 32f
11:48 2 3 mph 1023.8mb 46f 32f
11:42 1 2 mph 1023.8mb 46f 32f
11:36  -  3 mph 1023.8mb 46f 32f
11:30 2 5 mph 1023.8mb 46f 32f
11:24 2 5 mph 1023.9mb 46f 32f
11:18 3 6 mph 1023.9mb 46f 32f
11:12 5 7 mph 1023.9mb 46f 32f
11:06 2 6 mph 1024mb 46f 32f
11:00 1 6 mph 1024mb 46f 32f
10:54 3 6 mph 1024mb 46f 31f
10:48 3 5 mph 1024.1mb 46f 31f
10:42 2 6 mph 1024.1mb 46f 31f
10:36 2 6 mph 1024.1mb 46f 31f
10:30 2 7 mph 1024.1mb 46f 31f
10:24 6 8 mph 1024.1mb 46f 31f
10:18 6 8 mph 1024.1mb 46f 31f
10:12 3 8 mph 1024.2mb 46f 31f
10:06 6 8 mph 1024.2mb 46f 30f
10:00 2 7 mph 1024.2mb 46f 31f
9:54 2 8 mph 1024.2mb 46f 31f
9:48 2 6 mph 1024.3mb 47f 30f
9:42 3 7 mph 1024.3mb 47f 30f
9:36 5 9 mph 1024.4mb 47f 30f
9:30 6 9 mph 1024.3mb 47f 30f
9:24 6 9 mph 1024.3mb 47f 30f
9:18 5 8 mph 1024.3mb 47f 30f
9:12 3 7 mph 1024.2mb 47f 30f
9:06 2 8 mph 1024.3mb 47f 30f
9:00 2 7 mph 1024.3mb 46f 30f
8:54 2 10 mph 1024.2mb 46f 30f
8:48 6 8 mph 1024.2mb 46f 29f
8:42 5 7 mph 1024.3mb 46f 29f
8:36 5 9 mph 1024.3mb 46f 29f
8:30 7 9 mph 1024.3mb 46f 29f
8:24 7 9 mph 1024.2mb 46f 29f
8:18 6 9 mph 1024.2mb 46f 29f
8:12 7 9 mph 1024.2mb 46f 29f
8:06 6 10 mph 1024.2mb 46f 29f
8:00 7 10 mph 1024.1mb 46f 29f
7:54 7 9 mph 1024.1mb 46f 29f
7:48 6 9 mph 1024mb 46f 29f
7:42 5 8 mph 1023.9mb 46f 29f
7:36 6 8 mph 1023.9mb 46f 29f
7:30 2 8 mph 1023.9mb 46f 29f
7:24 6 9 mph 1023.8mb 46f 29f
7:18 6 10 mph 1023.8mb 47f 29f
7:12 6 8 mph 1023.7mb 47f 29f
7:06 2 7 mph 1023.6mb 47f 29f
7:00 5 7 mph 1023.5mb 47f 29f
6:54 5 7 mph 1023.5mb 47f 29f
6:48 7 8 mph 1023.5mb 47f 29f
6:42 5 7 mph 1023.5mb 47f 28f
6:36 5 7 mph 1023.4mb 47f 28f
6:30 3 7 mph 1023.4mb 47f 28f
6:24 5 7 mph 1023.3mb 47f 28f
6:18 6 8 mph 1023.2mb 47f 28f
6:12 5 8 mph 1023.1mb 47f 28f
6:06 3 7 mph 1023.1mb 47f 28f
6:00 3 6 mph 1023.1mb 47f 28f
5:54 6 8 mph 1022.9mb 47f 28f
5:48 6 7 mph 1022.7mb 47f 28f
5:42 5 6 mph 1022.7mb 47f 27f
5:36 3 6 mph 1022.6mb 46f 27f
5:30 2 5 mph 1022.6mb 46f 27f
5:24 3 7 mph 1022.5mb 46f 27f
5:18 3 7 mph 1022.4mb 46f 27f
5:12 3 7 mph 1022.4mb 46f 27f
5:06 3 6 mph 1022.3mb 46f 27f
5:00 5 6 mph 1022.2mb 46f 27f
4:54 5 7 mph 1022mb 46f 28f
4:48 3 7 mph 1021.9mb 46f 28f
4:42 3 7 mph 1021.9mb 46f 28f
4:36 3 7 mph 1021.8mb 46f 28f
4:30 3 8 mph 1021.7mb 46f 29f
4:24 5 8 mph 1021.7mb 46f 29f
4:18 5 11 mph 1021.6mb 46f 29f
4:12 7 10 mph 1021.5mb 47f 29f
4:06 5 10 mph 1021.5mb 47f 29f
4:00 7 11 mph 1021.5mb 47f 29f
3:54 6 8 mph 1021.4mb 47f 29f
3:48 2 7 mph 1021.3mb 47f 29f
3:42 2 7 mph 1021.3mb 47f 29f
3:36 3 8 mph 1021.3mb 47f 29f
3:30 5 8 mph 1021.3mb 47f 29f
3:24 2 6 mph 1021.3mb 47f 29f
3:18 5 6 mph 1021.3mb 47f 29f
3:12 5 6 mph 1021.3mb 47f 29f
3:06 5 6 mph 1021.3mb 47f 28f
3:00 3 5 mph 1021.4mb 47f 28f
2:54 3 5 mph 1021.3mb 47f 28f
2:48 2 5 mph 1021.3mb 47f 28f
2:42 3 5 mph 1021.3mb 47f 28f
2:36 3 5 mph 1021.3mb 47f 28f
2:30 3 5 mph 1021.3mb 47f 29f
2:24 5 6 mph 1021.2mb 46f 29f
2:18 3 7 mph 1021.2mb 46f 29f
2:12 6
mph
1021.1mb 46f 29f
2:06 3 7 mph 1021.2mb 46f 29f
2:00 3 6 mph 1021.2mb 46f 29f
1:54 2 5 mph 1021.3mb 46f 29f
1:48 1 3 mph 1021.3mb 46f 29f
1:42 3 5 mph 1021.2mb 46f 29f
1:36 3 5 mph 1021.2mb 46f 29f
1:30 2 3 mph 1021.1mb 46f 29f
1:24 2 3 mph 1021.1mb 46f 29f
1:18 1 5 mph 1021.1mb 46f 29f
1:12 2 3 mph 1021mb 46f 29f
1:06 2 3 mph 1021mb 46f 29f
1:00 2 3 mph 1020.9mb 46f 30f
12:54  -  5 mph 1020.9mb 46f 30f
12:48 1 2 mph 1020.9mb 46f 30f
12:42  -  3 mph 1020.8mb 46f 30f
12:36 2 6 mph 1020.8mb 46f 30f
12:30 2 3 mph 1020.8mb 46f 31f
12:24 2 5 mph 1020.6mb 46f 31f
12:18 6
mph
1020.6mb 46f 31f
12:12 2 3 mph 1020.5mb 46f 31f
12:06 2 5 mph 1020.4mb 46f 31f
12:00 2 3 mph 1020.3mb 46f 31f
vie 12/19 11:54 2 5 mph 1020.2mb 46f 31f
11:48 2 6 mph 1020.1mb 46f 32f
11:42 2 5 mph 1020.2mb 46f 32f
11:36 2 3 mph 1020.2mb 46f 32f
11:30 2 5 mph 1020.2mb 46f 32f
11:24  -  5 mph 1020.2mb 46f 32f
11:18 1 3 mph 1020.2mb 46f 32f
11:12 2 3 mph 1020.1mb 46f 32f
11:06 2 5 mph 1020.1mb 46f 32f
11:00 2 3 mph 1019.9mb 46f 32f
10:54 2 3 mph 1019.9mb 46f 32f
10:48 2 6 mph 1019.9mb 46f 32f
10:42 3 6 mph 1019.7mb 46f 32f
10:36 3 5 mph 1019.7mb 46f 32f
10:30 2 6 mph 1019.7mb 46f 32f
10:24 3 6 mph 1019.5mb 46f 32f
10:18 3 6 mph 1019.4mb 46f 32f
10:12 5 6 mph 1019.4mb 46f 32f
10:06  -  5 mph 1019.4mb 46f 32f
10:00 2 5 mph 1019.3mb 46f 32f
9:54 2 3 mph 1019.3mb 46f 32f
9:48 1 5 mph 1019.2mb 46f 32f
9:42 1 3 mph 1019.2mb 47f 32f
9:36 2 3 mph 1019.3mb 47f 32f
9:30 2 5 mph 1019.2mb 47f 32f
9:24 1 5 mph 1019.2mb 47f 32f
9:18 1 5 mph 1019.2mb 47f 32f
9:12 2 6 mph 1019.1mb 47f 32f
9:00 2 5 mph 1019.2mb 47f 32f
8:54 3 5 mph 1019.2mb 47f 32f
8:48 2 5 mph 1019.1mb 47f 32f
8:42 2 5 mph 1019.2mb 47f 32f
8:36 1 8 mph 1019.2mb 47f 32f
8:30 2 6 mph 1019.2mb 47f 32f
8:24 2 6 mph 1019.2mb 47f 32f
8:18 2 5 mph 1019.2mb 47f 32f
8:12 3 5 mph 1019.1mb 47f 32f
8:06 5 7 mph 1019.1mb 47f 32f
8:00 3 6 mph 1019mb 47f 32f
7:54 2 5 mph 1018.9mb 47f 32f
7:48 3 7 mph 1018.8mb 47f 32f
7:42 3 6 mph 1018.7mb 47f 32f
7:36 3 7 mph 1018.6mb 47f 32f
7:30 2 7 mph 1018.5mb 47f 33f
7:24 5 8 mph 1018.4mb 47f 33f
7:18 3 7 mph 1018.4mb 47f 33f
7:12 3 7 mph 1018.4mb 47f 33f
7:06 3 7 mph 1018.4mb 46f 33f
7:00 5 9 mph 1018.4mb 46f 33f
6:54 2 7 mph 1018.3mb 46f 33f
6:48 5 7 mph 1018.1mb 46f 33f
6:42 5 8 mph 1018mb 46f 33f
6:36 5 7 mph 1018mb 46f 33f
6:30 6 8 mph 1018mb 46f 34f
6:24 5 8 mph 1017.9mb 46f 34f
6:18 5 10 mph 1017.7mb 46f 34f
6:12 3 8 mph 1017.5mb 46f 34f
6:06 6 9 mph 1017.4mb 46f 34f
6:00 5 8 mph 1017.2mb 46f 34f
5:54 5 7 mph 1017.1mb 46f 34f
5:48 3 8 mph 1016.9mb 46f 34f
5:42 6 8 mph 1016.8mb 46f 35f
5:36 5 11 mph 1016.7mb 46f 35f
5:30 3 9 mph 1016.6mb 46f 35f
5:24 5 9 mph 1016.6mb 46f 35f
5:18 6 8 mph 1016.6mb 47f 35f
5:12 6 9 mph 1016.7mb 46f 35f
5:06 3 8 mph 1016.6mb 46f 35f
5:00 5 10 mph 1016.5mb 46f 35f
4:54 5 9 mph 1016.5mb 46f 35f
4:48 6 8 mph 1016.5mb 46f 35f
4:42 6 9 mph 1016.4mb 47f 35f
4:36 5 8 mph 1016.4mb 46f 35f
4:30 5 9 mph 1016.3mb 46f 35f
4:24 5 10 mph 1016.3mb 46f 35f
4:18 7 11 mph 1016.2mb 46f 35f
4:12 7 9 mph 1016mb 46f 35f
4:06 7 13 mph 1015.9mb 46f 35f
4:00 9 13 mph 1015.8mb 45f 35f
3:54 10 16 mph 1015.9mb 46f 35f
3:48 8 13 mph 1015.8mb 46f 36f
3:42 6 11 mph 1015.8mb 46f 36f
3:36 6 13 mph 1015.7mb 46f 36f
3:30 8 13 mph 1015.6mb 45f 36f
3:24 6 11 mph 1015.5mb 45f 36f
3:18 5 8 mph 1015.4mb 44f 36f
3:12 5 11 mph 1015.3mb 44f 36f
3:06 8 13 mph 1015.2mb 45f 36f
3:00 6 10 mph 1015.1mb 45f 36f
2:54 8 11 mph 1015mb 44f 36f
2:48 7 10 mph 1014.9mb 44f 36f
2:42 9 13 mph 1014.8mb 45f 36f
2:36 7 13 mph 1014.7mb 44f 36f
2:30 7 11 mph 1014.7mb 44f 36f
2:24 9 11 mph 1014.6mb 44f 36f
2:18 9 14 mph 1014.6mb 43f 36f
2:12 8 14 mph 1014.5mb 43f 36f
2:06 9 14 mph 1014.4mb 43f 36f
2:00 8 14 mph 1014.3mb 43f 37f
1:54 5 8 mph 1014.2mb 44f 37f
1:48 5 10 mph 1014.3mb 44f 37f
1:42 5 11 mph 1014.2mb 44f 37f
1:36 7 11 mph 1014.3mb 44f 37f
1:30 7 14 mph 1014.2mb 44f 37f
1:24 7 13 mph 1014.2mb 44f 37f
1:18 5 11 mph 1014.1mb 43f 37f
1:12 7 10 mph 1014.1mb 44f 37f
1:06 8 11 mph 1014.1mb 43f 37f
1:00 7 13 mph 1014.1mb 44f 37f
12:54 7 11 mph 1014mb 43f 37f
12:48 6 13 mph 1013.9mb 43f 38f
12:42 6 14 mph 1013.9mb 44f 38f
12:36 5 9 mph 1013.9mb 45f 38f
12:30 7 11 mph 1013.9mb 45f 37f
12:24 9 13 mph 1013.9mb 45f 37f
12:18 8 11 mph 1013.9mb 45f 38f
12:12 8 14 mph 1014mb 45f 37f
12:06 10 14 mph 1013.9mb 45f 37f
12:00 10 14 mph 1014mb 45f 37f
11:54 6 14 mph 1014mb 45f 38f
11:48 7 15 mph 1014.1mb 45f 38f
11:42 7 11 mph 1014.2mb 44f 38f
11:36 5 11 mph 1014.2mb 46f 38f
11:30 6 11 mph 1014.2mb 46f 38f
11:24 6 14 mph 1014.2mb 45f 38f
11:18 6 14 mph 1014.3mb 46f 38f
11:12 6 11 mph 1014.3mb 45f 38f
11:06 5 9 mph 1014.4mb 46f 38f
11:00 6 7 mph 1014.5mb 46f 38f
10:54 2 10 mph 1014.5mb 47f 38f
10:48 5 10 mph 1014.6mb 46f 37f
10:42 6 13 mph 1014.7mb 46f 37f
10:36 6 13 mph 1014.7mb 46f 37f
10:30 5 8 mph 1014.7mb 46f 37f
10:24 3 10 mph 1014.8mb 46f 37f
10:18 8 16 mph 1014.9mb 47f 37f
10:12 3 11 mph 1014.9mb 47f 37f
10:06 7 10 mph 1014.9mb 47f 36f
10:00 5 9 mph 1014.9mb 47f 37f
9:54 5 13 mph 1015mb 47f 36f
9:48 6 11 mph 1014.9mb 47f 36f
9:42 6 10 mph 1014.9mb 46f 36f
9:36 7 13 mph 1014.8mb 46f 36f
9:30 3 9 mph 1014.7mb 46f 36f
9:24 6 11 mph 1014.6mb 46f 36f
9:12 7 11 mph 1014.4mb 47f 35f
9:06 8 14 mph 1014.4mb 47f 35f
9:00 7 15 mph 1014.5mb 47f 35f
8:54 7 14 mph 1014.5mb 47f 35f
8:48 9 16 mph 1014.6mb 47f 35f
8:42 6 16 mph 1014.6mb 47f 35f
8:36 7 15 mph 1014.5mb 47f 35f
8:30 3 8 mph 1014.4mb 47f 35f
8:24 5 13 mph 1014.4mb 47f 35f
8:18 5 9 mph 1014.4mb 47f 35f
8:12 3 9 mph 1014.3mb 47f 35f
8:06 5 10 mph 1014.2mb 47f 35f
8:00 6 10 mph 1014.1mb 47f 35f
7:54 3 11 mph 1014.1mb 47f 35f
7:48 3 11 mph 1014.1mb 47f 35f
7:42 6 10 mph 1014mb 47f 35f
7:36 7 10 mph 1014mb 47f 35f
7:30 6 8 mph 1013.9mb 47f 35f
7:24 6 10 mph 1013.9mb 47f 35f
7:18 6 11 mph 1013.9mb 47f 35f
7:12 6 14 mph 1013.9mb 47f 35f
7:06 5 7 mph 1013.8mb 47f 35f
7:00 5 11 mph 1013.8mb 47f 35f
6:54 6 9 mph 1013.7mb 47f 35f
6:48 6 8 mph 1013.7mb 47f 35f
6:42 5 9 mph 1013.6mb 47f 35f
6:36 5 9 mph 1013.6mb 47f 35f
6:30 7 10 mph 1013.5mb 47f 35f
6:24 3 11 mph 1013.4mb 47f 35f
6:18 6 13 mph 1013.4mb 47f 35f
6:12 9 14 mph 1013.3mb 47f 35f
6:06 6 13 mph 1013.2mb 47f 35f
6:00 6 9 mph 1013.2mb 47f 35f
5:54 5 9 mph 1013.1mb 47f 35f
5:48 7 13 mph 1013mb 47f 35f
5:42 3 7 mph 1012.9mb 47f 35f
5:36 3 5 mph 1012.9mb 47f 35f
5:30 3 6 mph 1012.8mb 47f 35f
5:24 3 7 mph 1012.7mb 47f 35f
5:18 3 8 mph 1012.6mb 47f 35f
5:12 5 8 mph 1012.6mb 47f 35f
5:06 5 13 mph 1012.6mb 47f 35f
5:00 3 10 mph 1012.5mb 47f 34f
4:54 6 9 mph 1012.4mb 47f 34f
4:48 5 7 mph 1012.4mb 47f 34f
4:42 5 8 mph 1012.4mb 47f 34f
4:36 5 10 mph 1012.3mb 47f 35f
4:30 5 7 mph 1012.3mb 47f 35f
4:24 5 9 mph 1012.2mb 47f 35f
4:18 5 9 mph 1012.2mb 47f 35f
4:12 5 8 mph 1012.2mb 47f 35f
4:06 5 9 mph 1012.2mb 47f 35f
4:00 5 10 mph 1012.2mb 47f 35f
3:54 5 8 mph 1012.3mb 47f 35f
3:48 3 10 mph 1012.3mb 47f 35f
3:42 3 9 mph 1012.2mb 47f 36f
3:36 5 11 mph 1012.2mb 47f 36f
3:30 7 13 mph 1012.2mb 47f 36f
3:24 7 11 mph 1012.3mb 47f 36f
3:18 3 14 mph 1012.3mb 47f 36f
3:12 2 8 mph 1012.3mb 47f 36f
3:06 3 8 mph 1012.3mb 47f 36f
3:00 2 8 mph 1012.3mb 47f 36f
2:54 3 6 mph 1012.3mb 47f 36f
2:48 3 11 mph 1012.3mb 47f 36f
2:42 3 7 mph 1012.3mb 47f 36f
2:36 2 6 mph 1012.2mb 47f 36f
2:30 2 5 mph 1012.2mb 47f 36f
2:24 2 7 mph 1012.3mb 47f 36f
2:18 3 5 mph 1012.4mb 47f 36f
2:12  -  3 mph 1012.3mb 47f 35f
2:06  -  5 mph 1012.3mb 47f 36f
2:00 3 6 mph 1012.3mb 47f 36f
1:54 2 6 mph 1012.3mb 47f 36f
1:48 3 6 mph 1012.2mb 47f 35f
1:42 2 6 mph 1012.2mb 46f 35f
1:36 3 7 mph 1012.1mb 46f 35f
1:30 3 5 mph 1012.1mb 46f 35f
1:24 2 6 mph 1012.1mb 46f 35f
1:18 3 6 mph 1012.1mb 46f 35f
1:12 3 6 mph 1012.1mb 46f 35f
1:06 3 6 mph 1012.1mb 46f 35f
1:00 3 6 mph 1012.1mb 46f 35f
12:54 1 3 mph 1012.1mb 46f 35f
12:48 2 6 mph 1012.2mb 46f 35f
12:42 3 6 mph 1012.1mb 46f 35f
12:36 3 8 mph 1012.1mb 46f 36f
12:30 2 5 mph 1012.1mb 46f 36f
12:24 2 6 mph 1012.2mb 46f 36f